sensor_id;sensor_type;location;lat;lon;timestamp;P1;durP1;ratioP1;P2;durP2;ratioP2
23531;SDS011;11943;52.270;20.978;2023-06-14T00:00:17;8.98;;;7.32;;
23531;SDS011;11943;52.270;20.978;2023-06-14T00:02:43;9.95;;;8.13;;
23531;SDS011;11943;52.270;20.978;2023-06-14T00:05:09;14.10;;;8.15;;
23531;SDS011;11943;52.270;20.978;2023-06-14T00:10:07;11.02;;;7.43;;
23531;SDS011;11943;52.270;20.978;2023-06-14T00:12:33;7.97;;;7.18;;
23531;SDS011;11943;52.270;20.978;2023-06-14T00:14:59;10.30;;;7.28;;
23531;SDS011;11943;52.270;20.978;2023-06-14T00:17:26;8.65;;;7.15;;
23531;SDS011;11943;52.270;20.978;2023-06-14T00:19:56;11.27;;;7.28;;
23531;SDS011;11943;52.270;20.978;2023-06-14T00:22:23;9.55;;;7.18;;
23531;SDS011;11943;52.270;20.978;2023-06-14T00:24:53;10.75;;;7.15;;
23531;SDS011;11943;52.270;20.978;2023-06-14T00:27:19;11.55;;;7.32;;
23531;SDS011;11943;52.270;20.978;2023-06-14T00:29:45;12.93;;;7.40;;
23531;SDS011;11943;52.270;20.978;2023-06-14T00:32:11;12.77;;;7.60;;
23531;SDS011;11943;52.270;20.978;2023-06-14T00:34:36;9.13;;;7.70;;
23531;SDS011;11943;52.270;20.978;2023-06-14T00:37:02;10.93;;;7.70;;
23531;SDS011;11943;52.270;20.978;2023-06-14T00:39:28;10.75;;;8.32;;
23531;SDS011;11943;52.270;20.978;2023-06-14T00:41:53;9.85;;;7.93;;
23531;SDS011;11943;52.270;20.978;2023-06-14T00:44:19;12.20;;;8.25;;
23531;SDS011;11943;52.270;20.978;2023-06-14T00:46:46;9.53;;;8.30;;
23531;SDS011;11943;52.270;20.978;2023-06-14T00:49:12;11.68;;;9.00;;
23531;SDS011;11943;52.270;20.978;2023-06-14T00:51:41;11.05;;;8.88;;
23531;SDS011;11943;52.270;20.978;2023-06-14T00:54:07;10.93;;;9.35;;
23531;SDS011;11943;52.270;20.978;2023-06-14T00:56:33;10.82;;;9.73;;
23531;SDS011;11943;52.270;20.978;2023-06-14T00:59:01;15.65;;;10.02;;
23531;SDS011;11943;52.270;20.978;2023-06-14T01:01:28;12.38;;;10.18;;
23531;SDS011;11943;52.270;20.978;2023-06-14T01:03:57;12.57;;;9.93;;
23531;SDS011;11943;52.270;20.978;2023-06-14T01:06:28;12.73;;;10.57;;
23531;SDS011;11943;52.270;20.978;2023-06-14T01:09:17;11.38;;;10.05;;
23531;SDS011;11943;52.270;20.978;2023-06-14T01:11:54;11.65;;;10.07;;
23531;SDS011;11943;52.270;20.978;2023-06-14T01:14:27;12.48;;;9.73;;
23531;SDS011;11943;52.270;20.978;2023-06-14T01:16:54;11.60;;;10.40;;
23531;SDS011;11943;52.270;20.978;2023-06-14T01:19:22;12.77;;;10.02;;
23531;SDS011;11943;52.270;20.978;2023-06-14T01:21:50;14.18;;;10.20;;
23531;SDS011;11943;52.270;20.978;2023-06-14T01:24:17;13.15;;;11.15;;
23531;SDS011;11943;52.270;20.978;2023-06-14T01:26:50;15.95;;;10.65;;
23531;SDS011;11943;52.270;20.978;2023-06-14T01:29:21;13.13;;;10.50;;
23531;SDS011;11943;52.270;20.978;2023-06-14T01:34:14;11.45;;;10.05;;
23531;SDS011;11943;52.270;20.978;2023-06-14T01:36:41;12.45;;;9.48;;
23531;SDS011;11943;52.270;20.978;2023-06-14T01:39:10;13.88;;;10.18;;
23531;SDS011;11943;52.270;20.978;2023-06-14T01:41:40;12.00;;;9.73;;
23531;SDS011;11943;52.270;20.978;2023-06-14T01:44:07;13.98;;;9.82;;
23531;SDS011;11943;52.270;20.978;2023-06-14T01:46:34;13.82;;;9.70;;
23531;SDS011;11943;52.270;20.978;2023-06-14T01:49:01;10.37;;;9.27;;
23531;SDS011;11943;52.270;20.978;2023-06-14T01:51:27;14.50;;;9.43;;
23531;SDS011;11943;52.270;20.978;2023-06-14T01:53:52;12.38;;;8.85;;
23531;SDS011;11943;52.270;20.978;2023-06-14T01:56:18;9.90;;;8.55;;
23531;SDS011;11943;52.270;20.978;2023-06-14T01:58:44;11.30;;;8.77;;
23531;SDS011;11943;52.270;20.978;2023-06-14T02:01:10;11.55;;;8.63;;
23531;SDS011;11943;52.270;20.978;2023-06-14T02:03:37;11.02;;;9.25;;
23531;SDS011;11943;52.270;20.978;2023-06-14T02:06:03;10.48;;;9.38;;
23531;SDS011;11943;52.270;20.978;2023-06-14T02:08:29;13.38;;;9.68;;
23531;SDS011;11943;52.270;20.978;2023-06-14T02:10:55;13.02;;;9.43;;
23531;SDS011;11943;52.270;20.978;2023-06-14T02:13:20;13.20;;;9.38;;
23531;SDS011;11943;52.270;20.978;2023-06-14T02:15:46;12.25;;;9.18;;
23531;SDS011;11943;52.270;20.978;2023-06-14T02:18:16;11.25;;;9.20;;
23531;SDS011;11943;52.270;20.978;2023-06-14T02:20:41;14.93;;;10.25;;
23531;SDS011;11943;52.270;20.978;2023-06-14T02:23:07;13.35;;;10.25;;
23531;SDS011;11943;52.270;20.978;2023-06-14T02:25:32;15.05;;;10.10;;
23531;SDS011;11943;52.270;20.978;2023-06-14T02:27:58;12.07;;;10.18;;
23531;SDS011;11943;52.270;20.978;2023-06-14T02:30:24;13.20;;;10.45;;
23531;SDS011;11943;52.270;20.978;2023-06-14T02:32:49;14.57;;;10.50;;
23531;SDS011;11943;52.270;20.978;2023-06-14T02:35:16;14.85;;;11.30;;
23531;SDS011;11943;52.270;20.978;2023-06-14T02:37:41;12.93;;;10.15;;
23531;SDS011;11943;52.270;20.978;2023-06-14T02:40:07;15.30;;;10.38;;
23531;SDS011;11943;52.270;20.978;2023-06-14T02:42:34;11.20;;;10.00;;
23531;SDS011;11943;52.270;20.978;2023-06-14T02:45:00;12.65;;;10.40;;
23531;SDS011;11943;52.270;20.978;2023-06-14T02:47:27;12.25;;;9.70;;
23531;SDS011;11943;52.270;20.978;2023-06-14T02:49:53;10.77;;;9.68;;
23531;SDS011;11943;52.270;20.978;2023-06-14T02:52:18;13.30;;;10.00;;
23531;SDS011;11943;52.270;20.978;2023-06-14T02:54:45;16.00;;;9.80;;
23531;SDS011;11943;52.270;20.978;2023-06-14T02:57:12;15.15;;;9.93;;
23531;SDS011;11943;52.270;20.978;2023-06-14T02:59:37;13.02;;;10.00;;
23531;SDS011;11943;52.270;20.978;2023-06-14T03:02:03;15.77;;;10.25;;
23531;SDS011;11943;52.270;20.978;2023-06-14T03:04:30;14.73;;;9.88;;
23531;SDS011;11943;52.270;20.978;2023-06-14T03:06:59;11.00;;;9.85;;
23531;SDS011;11943;52.270;20.978;2023-06-14T03:09:27;14.68;;;9.95;;
23531;SDS011;11943;52.270;20.978;2023-06-14T03:11:53;11.50;;;9.55;;
23531;SDS011;11943;52.270;20.978;2023-06-14T03:14:19;15.70;;;10.30;;
23531;SDS011;11943;52.270;20.978;2023-06-14T03:16:46;10.93;;;9.70;;
23531;SDS011;11943;52.270;20.978;2023-06-14T03:19:11;12.50;;;10.07;;
23531;SDS011;11943;52.270;20.978;2023-06-14T03:21:37;18.17;;;10.60;;
23531;SDS011;11943;52.270;20.978;2023-06-14T03:24:03;17.00;;;10.85;;
23531;SDS011;11943;52.270;20.978;2023-06-14T03:26:29;12.23;;;10.90;;
23531;SDS011;11943;52.270;20.978;2023-06-14T03:28:56;18.55;;;12.07;;
23531;SDS011;11943;52.270;20.978;2023-06-14T03:31:22;16.67;;;12.35;;
23531;SDS011;11943;52.270;20.978;2023-06-14T03:33:48;15.45;;;12.73;;
23531;SDS011;11943;52.270;20.978;2023-06-14T03:36:14;14.13;;;12.10;;
23531;SDS011;11943;52.270;20.978;2023-06-14T03:38:39;15.85;;;11.98;;
23531;SDS011;11943;52.270;20.978;2023-06-14T03:41:05;13.73;;;12.32;;
23531;SDS011;11943;52.270;20.978;2023-06-14T03:43:31;17.10;;;12.75;;
23531;SDS011;11943;52.270;20.978;2023-06-14T03:45:56;16.55;;;13.30;;
23531;SDS011;11943;52.270;20.978;2023-06-14T03:48:22;17.63;;;13.38;;
23531;SDS011;11943;52.270;20.978;2023-06-14T03:50:48;15.82;;;13.68;;
23531;SDS011;11943;52.270;20.978;2023-06-14T03:53:13;17.02;;;14.43;;
23531;SDS011;11943;52.270;20.978;2023-06-14T03:55:39;16.77;;;14.20;;
23531;SDS011;11943;52.270;20.978;2023-06-14T03:58:06;16.95;;;13.90;;
23531;SDS011;11943;52.270;20.978;2023-06-14T04:00:32;17.98;;;13.57;;
23531;SDS011;11943;52.270;20.978;2023-06-14T04:02:57;20.25;;;13.45;;
23531;SDS011;11943;52.270;20.978;2023-06-14T04:05:23;16.35;;;12.48;;
23531;SDS011;11943;52.270;20.978;2023-06-14T04:07:51;17.65;;;12.05;;
23531;SDS011;11943;52.270;20.978;2023-06-14T04:10:17;17.48;;;12.75;;
23531;SDS011;11943;52.270;20.978;2023-06-14T04:12:42;14.55;;;12.00;;
23531;SDS011;11943;52.270;20.978;2023-06-14T04:15:08;12.13;;;10.90;;
23531;SDS011;11943;52.270;20.978;2023-06-14T04:17:35;13.07;;;11.73;;
23531;SDS011;11943;52.270;20.978;2023-06-14T04:20:02;13.20;;;10.93;;
23531;SDS011;11943;52.270;20.978;2023-06-14T04:22:32;17.25;;;11.25;;
23531;SDS011;11943;52.270;20.978;2023-06-14T04:24:58;11.68;;;10.48;;
23531;SDS011;11943;52.270;20.978;2023-06-14T04:27:25;16.00;;;11.52;;
23531;SDS011;11943;52.270;20.978;2023-06-14T04:29:51;16.08;;;10.48;;
23531;SDS011;11943;52.270;20.978;2023-06-14T04:32:23;16.50;;;10.75;;
23531;SDS011;11943;52.270;20.978;2023-06-14T04:34:53;17.10;;;10.70;;
23531;SDS011;11943;52.270;20.978;2023-06-14T04:37:19;10.93;;;9.77;;
23531;SDS011;11943;52.270;20.978;2023-06-14T04:39:48;12.27;;;9.88;;
23531;SDS011;11943;52.270;20.978;2023-06-14T04:42:15;10.70;;;9.33;;
23531;SDS011;11943;52.270;20.978;2023-06-14T04:44:42;13.02;;;10.07;;
23531;SDS011;11943;52.270;20.978;2023-06-14T04:47:08;13.68;;;10.82;;
23531;SDS011;11943;52.270;20.978;2023-06-14T04:49:34;18.67;;;10.55;;
23531;SDS011;11943;52.270;20.978;2023-06-14T04:52:00;14.07;;;10.10;;
23531;SDS011;11943;52.270;20.978;2023-06-14T04:54:26;13.65;;;10.45;;
23531;SDS011;11943;52.270;20.978;2023-06-14T04:56:52;16.25;;;10.15;;
23531;SDS011;11943;52.270;20.978;2023-06-14T04:59:20;12.40;;;9.85;;
23531;SDS011;11943;52.270;20.978;2023-06-14T05:01:48;13.70;;;9.13;;
23531;SDS011;11943;52.270;20.978;2023-06-14T05:04:14;10.75;;;9.50;;
23531;SDS011;11943;52.270;20.978;2023-06-14T05:06:41;11.82;;;8.80;;
23531;SDS011;11943;52.270;20.978;2023-06-14T05:09:09;11.93;;;9.55;;
23531;SDS011;11943;52.270;20.978;2023-06-14T05:11:39;11.57;;;9.05;;
23531;SDS011;11943;52.270;20.978;2023-06-14T05:14:07;13.57;;;9.50;;
23531;SDS011;11943;52.270;20.978;2023-06-14T05:16:33;16.90;;;8.57;;
23531;SDS011;11943;52.270;20.978;2023-06-14T05:18:59;9.60;;;8.60;;
23531;SDS011;11943;52.270;20.978;2023-06-14T05:21:24;13.93;;;7.85;;
23531;SDS011;11943;52.270;20.978;2023-06-14T05:23:50;11.23;;;8.43;;
23531;SDS011;11943;52.270;20.978;2023-06-14T05:26:16;12.57;;;9.07;;
23531;SDS011;11943;52.270;20.978;2023-06-14T05:28:42;10.75;;;8.50;;
23531;SDS011;11943;52.270;20.978;2023-06-14T05:31:07;11.30;;;8.05;;
23531;SDS011;11943;52.270;20.978;2023-06-14T05:33:33;17.23;;;9.27;;
23531;SDS011;11943;52.270;20.978;2023-06-14T05:35:58;12.20;;;8.88;;
23531;SDS011;11943;52.270;20.978;2023-06-14T05:38:24;10.43;;;9.30;;
23531;SDS011;11943;52.270;20.978;2023-06-14T05:40:50;10.85;;;9.68;;
23531;SDS011;11943;52.270;20.978;2023-06-14T05:43:16;14.25;;;9.85;;
23531;SDS011;11943;52.270;20.978;2023-06-14T05:45:41;14.55;;;11.02;;
23531;SDS011;11943;52.270;20.978;2023-06-14T05:48:07;16.52;;;9.77;;
23531;SDS011;11943;52.270;20.978;2023-06-14T05:50:33;13.27;;;10.00;;
23531;SDS011;11943;52.270;20.978;2023-06-14T05:52:59;12.18;;;10.00;;
23531;SDS011;11943;52.270;20.978;2023-06-14T05:55:24;14.93;;;9.40;;
23531;SDS011;11943;52.270;20.978;2023-06-14T05:57:50;15.13;;;10.18;;
23531;SDS011;11943;52.270;20.978;2023-06-14T06:00:17;13.77;;;9.77;;
23531;SDS011;11943;52.270;20.978;2023-06-14T06:02:43;23.05;;;17.08;;
23531;SDS011;11943;52.270;20.978;2023-06-14T06:05:09;17.77;;;10.25;;
23531;SDS011;11943;52.270;20.978;2023-06-14T06:07:35;13.77;;;10.10;;
23531;SDS011;11943;52.270;20.978;2023-06-14T06:10:02;11.10;;;9.85;;
23531;SDS011;11943;52.270;20.978;2023-06-14T06:12:30;13.05;;;9.70;;
23531;SDS011;11943;52.270;20.978;2023-06-14T06:14:56;12.93;;;10.02;;
23531;SDS011;11943;52.270;20.978;2023-06-14T06:17:22;13.30;;;8.70;;
23531;SDS011;11943;52.270;20.978;2023-06-14T06:19:47;12.38;;;8.95;;
23531;SDS011;11943;52.270;20.978;2023-06-14T06:22:13;12.35;;;7.85;;
23531;SDS011;11943;52.270;20.978;2023-06-14T06:24:38;10.07;;;8.52;;
23531;SDS011;11943;52.270;20.978;2023-06-14T06:27:04;18.73;;;9.15;;
23531;SDS011;11943;52.270;20.978;2023-06-14T06:29:33;13.93;;;9.35;;
23531;SDS011;11943;52.270;20.978;2023-06-14T06:31:58;13.23;;;8.80;;
23531;SDS011;11943;52.270;20.978;2023-06-14T06:34:24;12.30;;;8.68;;
23531;SDS011;11943;52.270;20.978;2023-06-14T06:36:50;11.75;;;9.75;;
23531;SDS011;11943;52.270;20.978;2023-06-14T06:39:16;15.07;;;9.65;;
23531;SDS011;11943;52.270;20.978;2023-06-14T06:41:42;13.73;;;8.70;;
23531;SDS011;11943;52.270;20.978;2023-06-14T06:44:07;11.60;;;8.95;;
23531;SDS011;11943;52.270;20.978;2023-06-14T06:49:04;15.27;;;9.02;;
23531;SDS011;11943;52.270;20.978;2023-06-14T06:51:31;16.73;;;10.80;;
23531;SDS011;11943;52.270;20.978;2023-06-14T06:53:56;18.98;;;10.95;;
23531;SDS011;11943;52.270;20.978;2023-06-14T06:56:22;22.08;;;11.45;;
23531;SDS011;11943;52.270;20.978;2023-06-14T06:58:49;13.55;;;10.65;;
23531;SDS011;11943;52.270;20.978;2023-06-14T07:01:18;14.82;;;12.10;;
23531;SDS011;11943;52.270;20.978;2023-06-14T07:03:45;16.40;;;10.32;;
23531;SDS011;11943;52.270;20.978;2023-06-14T07:06:11;14.25;;;11.18;;
23531;SDS011;11943;52.270;20.978;2023-06-14T07:08:36;12.85;;;9.18;;
23531;SDS011;11943;52.270;20.978;2023-06-14T07:11:05;15.20;;;9.25;;
23531;SDS011;11943;52.270;20.978;2023-06-14T07:13:32;14.07;;;8.80;;
23531;SDS011;11943;52.270;20.978;2023-06-14T07:15:58;13.30;;;9.40;;
23531;SDS011;11943;52.270;20.978;2023-06-14T07:18:25;15.43;;;9.57;;
23531;SDS011;11943;52.270;20.978;2023-06-14T07:20:52;17.33;;;9.60;;
23531;SDS011;11943;52.270;20.978;2023-06-14T07:23:19;12.90;;;8.82;;
23531;SDS011;11943;52.270;20.978;2023-06-14T07:25:45;13.55;;;9.57;;
23531;SDS011;11943;52.270;20.978;2023-06-14T07:28:11;13.98;;;9.25;;
23531;SDS011;11943;52.270;20.978;2023-06-14T07:30:36;14.07;;;9.57;;
23531;SDS011;11943;52.270;20.978;2023-06-14T07:33:02;21.08;;;8.93;;
23531;SDS011;11943;52.270;20.978;2023-06-14T07:35:28;15.30;;;8.82;;
23531;SDS011;11943;52.270;20.978;2023-06-14T07:37:53;8.80;;;7.88;;
23531;SDS011;11943;52.270;20.978;2023-06-14T07:40:19;16.55;;;8.40;;
23531;SDS011;11943;52.270;20.978;2023-06-14T07:42:45;13.60;;;8.20;;
23531;SDS011;11943;52.270;20.978;2023-06-14T07:45:12;13.05;;;7.55;;
23531;SDS011;11943;52.270;20.978;2023-06-14T07:47:38;13.75;;;7.88;;
23531;SDS011;11943;52.270;20.978;2023-06-14T07:50:04;11.73;;;7.68;;
23531;SDS011;11943;52.270;20.978;2023-06-14T07:52:30;10.55;;;7.35;;
23531;SDS011;11943;52.270;20.978;2023-06-14T07:54:56;13.52;;;7.47;;
23531;SDS011;11943;52.270;20.978;2023-06-14T07:57:22;13.40;;;7.60;;
23531;SDS011;11943;52.270;20.978;2023-06-14T07:59:47;11.25;;;8.05;;
23531;SDS011;11943;52.270;20.978;2023-06-14T08:02:13;13.60;;;7.60;;
23531;SDS011;11943;52.270;20.978;2023-06-14T08:04:39;12.73;;;7.05;;
23531;SDS011;11943;52.270;20.978;2023-06-14T08:07:05;10.23;;;7.05;;
23531;SDS011;11943;52.270;20.978;2023-06-14T08:09:32;11.05;;;7.47;;
23531;SDS011;11943;52.270;20.978;2023-06-14T08:11:57;14.43;;;7.75;;
23531;SDS011;11943;52.270;20.978;2023-06-14T08:14:23;10.02;;;7.47;;
23531;SDS011;11943;52.270;20.978;2023-06-14T08:16:49;16.23;;;8.43;;
23531;SDS011;11943;52.270;20.978;2023-06-14T08:19:14;9.43;;;7.13;;
23531;SDS011;11943;52.270;20.978;2023-06-14T08:21:41;15.63;;;7.07;;
23531;SDS011;11943;52.270;20.978;2023-06-14T08:24:08;16.40;;;7.45;;
23531;SDS011;11943;52.270;20.978;2023-06-14T08:26:37;13.35;;;7.40;;
23531;SDS011;11943;52.270;20.978;2023-06-14T08:29:03;11.90;;;7.68;;
23531;SDS011;11943;52.270;20.978;2023-06-14T08:31:29;12.73;;;7.30;;
23531;SDS011;11943;52.270;20.978;2023-06-14T08:33:56;18.45;;;7.60;;
23531;SDS011;11943;52.270;20.978;2023-06-14T08:36:22;11.30;;;7.53;;
23531;SDS011;11943;52.270;20.978;2023-06-14T08:38:48;11.93;;;8.30;;
23531;SDS011;11943;52.270;20.978;2023-06-14T08:41:13;12.85;;;7.82;;
23531;SDS011;11943;52.270;20.978;2023-06-14T08:43:45;17.63;;;8.18;;
23531;SDS011;11943;52.270;20.978;2023-06-14T08:46:12;11.30;;;7.28;;
23531;SDS011;11943;52.270;20.978;2023-06-14T08:48:43;9.25;;;7.13;;
23531;SDS011;11943;52.270;20.978;2023-06-14T08:51:09;7.70;;;6.35;;
23531;SDS011;11943;52.270;20.978;2023-06-14T08:53:36;17.60;;;7.25;;
23531;SDS011;11943;52.270;20.978;2023-06-14T08:56:07;7.85;;;6.05;;
23531;SDS011;11943;52.270;20.978;2023-06-14T08:58:38;11.40;;;5.88;;
23531;SDS011;11943;52.270;20.978;2023-06-14T09:01:08;11.15;;;6.30;;
23531;SDS011;11943;52.270;20.978;2023-06-14T09:03:37;8.93;;;6.50;;
23531;SDS011;11943;52.270;20.978;2023-06-14T09:06:06;7.30;;;6.03;;
23531;SDS011;11943;52.270;20.978;2023-06-14T09:08:33;10.52;;;5.97;;
23531;SDS011;11943;52.270;20.978;2023-06-14T09:11:01;10.07;;;6.18;;
23531;SDS011;11943;52.270;20.978;2023-06-14T09:13:27;11.45;;;6.07;;
23531;SDS011;11943;52.270;20.978;2023-06-14T09:15:53;9.45;;;5.53;;
23531;SDS011;11943;52.270;20.978;2023-06-14T09:18:19;11.90;;;5.63;;
23531;SDS011;11943;52.270;20.978;2023-06-14T09:20:46;13.57;;;5.72;;
23531;SDS011;11943;52.270;20.978;2023-06-14T09:23:13;7.38;;;5.82;;
23531;SDS011;11943;52.270;20.978;2023-06-14T09:25:43;7.43;;;5.30;;
23531;SDS011;11943;52.270;20.978;2023-06-14T09:28:11;10.18;;;5.80;;
23531;SDS011;11943;52.270;20.978;2023-06-14T09:30:37;8.82;;;5.18;;
23531;SDS011;11943;52.270;20.978;2023-06-14T09:33:03;10.98;;;5.53;;
23531;SDS011;11943;52.270;20.978;2023-06-14T09:35:30;8.65;;;5.80;;
23531;SDS011;11943;52.270;20.978;2023-06-14T09:37:57;10.32;;;6.20;;
23531;SDS011;11943;52.270;20.978;2023-06-14T09:40:23;8.65;;;5.90;;
23531;SDS011;11943;52.270;20.978;2023-06-14T09:42:48;14.13;;;7.00;;
23531;SDS011;11943;52.270;20.978;2023-06-14T09:45:15;9.05;;;5.03;;
23531;SDS011;11943;52.270;20.978;2023-06-14T09:47:46;10.52;;;5.20;;
23531;SDS011;11943;52.270;20.978;2023-06-14T09:50:14;9.30;;;4.57;;
23531;SDS011;11943;52.270;20.978;2023-06-14T09:52:40;9.02;;;4.43;;
23531;SDS011;11943;52.270;20.978;2023-06-14T09:55:12;9.20;;;5.13;;
23531;SDS011;11943;52.270;20.978;2023-06-14T09:57:41;6.43;;;5.15;;
23531;SDS011;11943;52.270;20.978;2023-06-14T10:00:09;6.88;;;5.25;;
23531;SDS011;11943;52.270;20.978;2023-06-14T10:02:36;10.68;;;5.20;;
23531;SDS011;11943;52.270;20.978;2023-06-14T10:05:07;8.07;;;4.75;;
23531;SDS011;11943;52.270;20.978;2023-06-14T10:08:20;13.98;;;4.60;;
23531;SDS011;11943;52.270;20.978;2023-06-14T10:10:29;10.45;;;4.80;;
23531;SDS011;11943;52.270;20.978;2023-06-14T10:12:55;5.83;;;4.47;;
23531;SDS011;11943;52.270;20.978;2023-06-14T10:15:32;10.02;;;4.22;;
23531;SDS011;11943;52.270;20.978;2023-06-14T10:21:01;5.47;;;3.90;;
23531;SDS011;11943;52.270;20.978;2023-06-14T10:23:30;9.07;;;3.80;;
23531;SDS011;11943;52.270;20.978;2023-06-14T10:25:58;7.55;;;4.43;;
23531;SDS011;11943;52.270;20.978;2023-06-14T10:28:25;7.70;;;4.15;;
23531;SDS011;11943;52.270;20.978;2023-06-14T10:31:11;8.48;;;4.60;;
23531;SDS011;11943;52.270;20.978;2023-06-14T10:36:29;8.77;;;4.28;;
23531;SDS011;11943;52.270;20.978;2023-06-14T10:39:01;11.80;;;4.73;;
23531;SDS011;11943;52.270;20.978;2023-06-14T10:41:31;10.35;;;4.60;;
23531;SDS011;11943;52.270;20.978;2023-06-14T10:46:38;6.35;;;4.13;;
23531;SDS011;11943;52.270;20.978;2023-06-14T10:49:19;7.68;;;4.03;;
23531;SDS011;11943;52.270;20.978;2023-06-14T10:52:07;5.03;;;3.30;;
23531;SDS011;11943;52.270;20.978;2023-06-14T10:54:37;4.60;;;3.40;;
23531;SDS011;11943;52.270;20.978;2023-06-14T10:57:03;5.78;;;3.33;;
23531;SDS011;11943;52.270;20.978;2023-06-14T10:59:32;9.65;;;3.72;;
23531;SDS011;11943;52.270;20.978;2023-06-14T11:02:27;7.18;;;3.10;;
23531;SDS011;11943;52.270;20.978;2023-06-14T11:05:10;5.72;;;3.10;;
23531;SDS011;11943;52.270;20.978;2023-06-14T11:10:41;6.47;;;3.13;;
23531;SDS011;11943;52.270;20.978;2023-06-14T11:13:08;11.80;;;4.47;;
23531;SDS011;11943;52.270;20.978;2023-06-14T11:15:35;5.90;;;3.60;;
23531;SDS011;11943;52.270;20.978;2023-06-14T11:18:02;7.22;;;3.55;;
23531;SDS011;11943;52.270;20.978;2023-06-14T11:20:32;10.68;;;3.60;;
23531;SDS011;11943;52.270;20.978;2023-06-14T11:23:00;7.57;;;4.30;;
23531;SDS011;11943;52.270;20.978;2023-06-14T11:25:27;7.53;;;3.97;;
23531;SDS011;11943;52.270;20.978;2023-06-14T11:27:53;4.68;;;3.95;;
23531;SDS011;11943;52.270;20.978;2023-06-14T11:30:20;5.47;;;3.50;;
23531;SDS011;11943;52.270;20.978;2023-06-14T11:32:46;10.85;;;4.18;;
23531;SDS011;11943;52.270;20.978;2023-06-14T11:35:16;8.95;;;3.28;;
23531;SDS011;11943;52.270;20.978;2023-06-14T11:37:43;8.93;;;3.38;;
23531;SDS011;11943;52.270;20.978;2023-06-14T11:40:09;8.70;;;3.38;;
23531;SDS011;11943;52.270;20.978;2023-06-14T11:42:37;6.00;;;2.80;;
23531;SDS011;11943;52.270;20.978;2023-06-14T11:47:34;6.13;;;2.70;;
23531;SDS011;11943;52.270;20.978;2023-06-14T11:50:03;4.85;;;2.90;;
23531;SDS011;11943;52.270;20.978;2023-06-14T11:54:56;10.07;;;2.63;;
23531;SDS011;11943;52.270;20.978;2023-06-14T11:57:23;14.70;;;3.00;;
23531;SDS011;11943;52.270;20.978;2023-06-14T11:59:49;5.28;;;3.00;;
23531;SDS011;11943;52.270;20.978;2023-06-14T12:02:18;5.97;;;2.67;;
23531;SDS011;11943;52.270;20.978;2023-06-14T12:04:46;5.00;;;2.95;;
23531;SDS011;11943;52.270;20.978;2023-06-14T12:07:15;7.05;;;2.45;;
23531;SDS011;11943;52.270;20.978;2023-06-14T12:12:22;6.15;;;2.72;;
23531;SDS011;11943;52.270;20.978;2023-06-14T12:14:50;9.93;;;2.28;;
23531;SDS011;11943;52.270;20.978;2023-06-14T12:17:16;3.10;;;2.67;;
23531;SDS011;11943;52.270;20.978;2023-06-14T12:19:43;3.53;;;2.78;;
23531;SDS011;11943;52.270;20.978;2023-06-14T12:22:11;3.40;;;2.42;;
23531;SDS011;11943;52.270;20.978;2023-06-14T12:24:37;4.20;;;2.20;;
23531;SDS011;11943;52.270;20.978;2023-06-14T12:27:04;7.43;;;2.80;;
23531;SDS011;11943;52.270;20.978;2023-06-14T12:29:30;6.65;;;2.80;;
23531;SDS011;11943;52.270;20.978;2023-06-14T12:31:57;6.47;;;2.85;;
23531;SDS011;11943;52.270;20.978;2023-06-14T12:34:26;7.60;;;2.70;;
23531;SDS011;11943;52.270;20.978;2023-06-14T12:36:53;5.53;;;2.85;;
23531;SDS011;11943;52.270;20.978;2023-06-14T12:39:19;4.53;;;2.80;;
23531;SDS011;11943;52.270;20.978;2023-06-14T12:41:45;7.10;;;3.20;;
23531;SDS011;11943;52.270;20.978;2023-06-14T12:44:11;5.63;;;2.95;;
23531;SDS011;11943;52.270;20.978;2023-06-14T12:46:38;3.22;;;2.92;;
23531;SDS011;11943;52.270;20.978;2023-06-14T12:49:04;7.57;;;2.80;;
23531;SDS011;11943;52.270;20.978;2023-06-14T12:51:31;7.85;;;3.17;;
23531;SDS011;11943;52.270;20.978;2023-06-14T12:53:57;6.93;;;3.05;;
23531;SDS011;11943;52.270;20.978;2023-06-14T12:56:23;5.10;;;2.45;;
23531;SDS011;11943;52.270;20.978;2023-06-14T12:58:48;6.78;;;2.55;;
23531;SDS011;11943;52.270;20.978;2023-06-14T13:01:14;7.15;;;2.60;;
23531;SDS011;11943;52.270;20.978;2023-06-14T13:03:40;4.43;;;2.40;;
23531;SDS011;11943;52.270;20.978;2023-06-14T13:06:05;4.95;;;2.50;;
23531;SDS011;11943;52.270;20.978;2023-06-14T13:08:31;6.43;;;2.70;;
23531;SDS011;11943;52.270;20.978;2023-06-14T13:10:57;7.35;;;2.90;;
23531;SDS011;11943;52.270;20.978;2023-06-14T13:13:22;3.88;;;2.35;;
23531;SDS011;11943;52.270;20.978;2023-06-14T13:15:48;4.00;;;2.10;;
23531;SDS011;11943;52.270;20.978;2023-06-14T13:18:15;7.00;;;2.25;;
23531;SDS011;11943;52.270;20.978;2023-06-14T13:20:41;4.60;;;2.20;;
23531;SDS011;11943;52.270;20.978;2023-06-14T13:23:07;7.95;;;2.33;;
23531;SDS011;11943;52.270;20.978;2023-06-14T13:25:33;6.60;;;2.45;;
23531;SDS011;11943;52.270;20.978;2023-06-14T13:27:59;8.55;;;2.42;;
23531;SDS011;11943;52.270;20.978;2023-06-14T13:30:25;5.90;;;2.42;;
23531;SDS011;11943;52.270;20.978;2023-06-14T13:32:51;3.88;;;2.45;;
23531;SDS011;11943;52.270;20.978;2023-06-14T13:35:17;9.82;;;2.90;;
23531;SDS011;11943;52.270;20.978;2023-06-14T13:37:43;2.85;;;2.50;;
23531;SDS011;11943;52.270;20.978;2023-06-14T13:40:09;3.65;;;2.60;;
23531;SDS011;11943;52.270;20.978;2023-06-14T13:42:35;5.60;;;3.10;;
23531;SDS011;11943;52.270;20.978;2023-06-14T13:45:02;5.05;;;2.95;;
23531;SDS011;11943;52.270;20.978;2023-06-14T13:47:28;7.38;;;3.70;;
23531;SDS011;11943;52.270;20.978;2023-06-14T13:49:55;9.40;;;2.65;;
23531;SDS011;11943;52.270;20.978;2023-06-14T13:52:20;9.75;;;2.85;;
23531;SDS011;11943;52.270;20.978;2023-06-14T13:54:46;11.40;;;3.35;;
23531;SDS011;11943;52.270;20.978;2023-06-14T13:57:12;4.97;;;2.92;;
23531;SDS011;11943;52.270;20.978;2023-06-14T13:59:38;5.80;;;3.10;;
23531;SDS011;11943;52.270;20.978;2023-06-14T14:02:05;7.85;;;3.40;;
23531;SDS011;11943;52.270;20.978;2023-06-14T14:04:31;5.90;;;3.60;;
23531;SDS011;11943;52.270;20.978;2023-06-14T14:06:57;9.65;;;3.42;;
23531;SDS011;11943;52.270;20.978;2023-06-14T14:09:22;5.07;;;2.78;;
23531;SDS011;11943;52.270;20.978;2023-06-14T14:11:48;6.53;;;3.28;;
23531;SDS011;11943;52.270;20.978;2023-06-14T14:14:14;10.02;;;3.10;;
23531;SDS011;11943;52.270;20.978;2023-06-14T14:16:40;5.40;;;2.83;;
23531;SDS011;11943;52.270;20.978;2023-06-14T14:19:06;5.75;;;2.70;;
23531;SDS011;11943;52.270;20.978;2023-06-14T14:21:32;5.72;;;2.97;;
23531;SDS011;11943;52.270;20.978;2023-06-14T14:23:58;4.75;;;2.53;;
23531;SDS011;11943;52.270;20.978;2023-06-14T14:26:23;3.47;;;3.00;;
23531;SDS011;11943;52.270;20.978;2023-06-14T14:28:50;6.35;;;3.20;;
23531;SDS011;11943;52.270;20.978;2023-06-14T14:31:16;7.20;;;3.05;;
23531;SDS011;11943;52.270;20.978;2023-06-14T14:33:42;12.02;;;3.50;;
23531;SDS011;11943;52.270;20.978;2023-06-14T14:36:08;4.22;;;2.90;;
23531;SDS011;11943;52.270;20.978;2023-06-14T14:38:34;5.65;;;3.03;;
23531;SDS011;11943;52.270;20.978;2023-06-14T14:41:00;8.32;;;3.13;;
23531;SDS011;11943;52.270;20.978;2023-06-14T14:43:25;5.13;;;3.05;;
23531;SDS011;11943;52.270;20.978;2023-06-14T14:45:52;8.82;;;2.85;;
23531;SDS011;11943;52.270;20.978;2023-06-14T14:48:17;5.13;;;2.50;;